createdAt,value
2018-06-08T00:00:43.451Z,21.11
2018-06-08T00:01:43.435Z,21.09
2018-06-08T00:02:43.440Z,21.06
2018-06-08T00:03:43.426Z,21.07
2018-06-08T00:04:43.430Z,21.07
2018-06-08T00:05:43.424Z,21.00
2018-06-08T00:06:43.422Z,21.05
2018-06-08T00:07:43.418Z,21.09
2018-06-08T00:08:43.416Z,20.99
2018-06-08T00:09:43.409Z,21.00
2018-06-08T00:10:43.406Z,20.96
2018-06-08T00:11:43.405Z,20.99
2018-06-08T00:12:43.403Z,20.85
2018-06-08T00:13:43.424Z,20.81
2018-06-08T00:14:43.398Z,20.85
2018-06-08T00:15:43.391Z,20.81
2018-06-08T00:16:43.388Z,20.67
2018-06-08T00:17:43.382Z,20.67
2018-06-08T00:18:43.382Z,20.62
2018-06-08T00:19:43.381Z,20.60
2018-06-08T00:20:43.379Z,20.67
2018-06-08T00:21:43.371Z,20.55
2018-06-08T00:22:43.368Z,20.59
2018-06-08T00:23:43.363Z,20.65
2018-06-08T00:24:43.365Z,20.56
2018-06-08T00:25:43.358Z,20.56
2018-06-08T00:26:43.360Z,20.55
2018-06-08T00:27:43.352Z,20.63
2018-06-08T00:28:43.346Z,20.56
2018-06-08T00:29:43.347Z,20.50
2018-06-08T00:30:43.337Z,20.48
2018-06-08T00:31:43.335Z,20.44
2018-06-08T00:32:43.333Z,20.44
2018-06-08T00:33:43.331Z,20.44
2018-06-08T00:34:43.328Z,20.37
2018-06-08T00:35:43.323Z,20.40
2018-06-08T00:36:43.319Z,20.28
2018-06-08T00:37:43.318Z,20.36
2018-06-08T00:38:43.313Z,20.28
2018-06-08T00:39:43.311Z,20.24
2018-06-08T00:40:43.309Z,20.21
2018-06-08T00:41:43.306Z,20.26
2018-06-08T00:42:43.303Z,20.24
2018-06-08T00:43:43.293Z,20.19
2018-06-08T00:44:43.301Z,20.21
2018-06-08T00:45:43.289Z,20.14
2018-06-08T00:46:43.292Z,20.13
2018-06-08T00:47:43.282Z,20.19
2018-06-08T00:48:43.279Z,20.10
2018-06-08T00:49:43.275Z,20.06
2018-06-08T00:50:43.269Z,20.07
2018-06-08T00:51:43.265Z,20.10
2018-06-08T00:52:43.259Z,20.10
2018-06-08T00:53:43.262Z,20.06
2018-06-08T00:54:43.257Z,20.06
2018-06-08T00:55:43.255Z,20.11
2018-06-08T00:56:43.247Z,20.04
2018-06-08T00:57:43.242Z,20.07
2018-06-08T00:58:44.116Z,20.04
2018-06-08T00:59:43.236Z,20.06
2018-06-08T01:00:43.239Z,19.94
2018-06-08T01:01:43.229Z,20.02
2018-06-08T01:02:43.227Z,20.00
2018-06-08T01:03:43.223Z,20.03
2018-06-08T01:04:44.119Z,20.02
2018-06-08T01:05:44.121Z,20.10
2018-06-08T01:06:43.208Z,19.99
2018-06-08T01:07:43.209Z,20.09
2018-06-08T01:08:43.210Z,20.02
2018-06-08T01:09:43.199Z,20.04
2018-06-08T01:10:43.194Z,20.03
2018-06-08T01:11:43.191Z,20.04
2018-06-08T01:12:43.187Z,19.99
2018-06-08T01:13:43.182Z,19.91
2018-06-08T01:14:43.180Z,20.00
2018-06-08T01:15:43.181Z,19.94
2018-06-08T01:16:43.177Z,19.91
2018-06-08T01:17:43.166Z,19.92
2018-06-08T01:18:43.171Z,19.85
2018-06-08T01:19:43.163Z,19.85
2018-06-08T01:20:43.157Z,19.88
2018-06-08T01:21:43.162Z,19.86
2018-06-08T01:22:43.159Z,19.86
2018-06-08T01:23:43.148Z,19.85
2018-06-08T01:24:43.144Z,19.88
2018-06-08T01:25:43.134Z,19.84
2018-06-08T01:26:43.135Z,19.82
2018-06-08T01:27:43.130Z,19.85
2018-06-08T01:28:43.128Z,19.76
2018-06-08T01:29:43.127Z,19.67
2018-06-08T01:30:43.121Z,19.81
2018-06-08T01:31:43.117Z,19.67
2018-06-08T01:32:43.111Z,19.76
2018-06-08T01:33:43.109Z,19.70
2018-06-08T01:34:43.107Z,19.81
2018-06-08T01:35:43.114Z,19.77
2018-06-08T01:36:43.098Z,19.79
2018-06-08T01:37:43.149Z,19.77
2018-06-08T01:38:43.087Z,19.79
2018-06-08T01:39:43.085Z,19.74
2018-06-08T01:40:43.080Z,19.71
2018-06-08T01:41:43.079Z,19.73
2018-06-08T01:42:43.074Z,19.76
2018-06-08T01:43:43.066Z,19.69
2018-06-08T01:44:43.067Z,19.64
2018-06-08T01:45:43.059Z,19.67
2018-06-08T01:46:43.056Z,19.69
2018-06-08T01:47:43.050Z,19.69
2018-06-08T01:48:43.069Z,19.66
2018-06-08T01:49:43.045Z,19.70
2018-06-08T01:50:43.042Z,19.62
2018-06-08T01:51:43.040Z,19.67
2018-06-08T01:52:43.050Z,19.70
2018-06-08T01:53:43.066Z,19.62
2018-06-08T01:54:43.024Z,19.59
2018-06-08T01:55:43.021Z,19.67
2018-06-08T01:56:43.021Z,19.63
2018-06-08T01:57:43.032Z,19.63
2018-06-08T01:58:43.013Z,19.66
2018-06-08T01:59:43.004Z,19.62
2018-06-08T02:00:43.058Z,19.59
2018-06-08T02:01:42.996Z,19.71
2018-06-08T02:02:43.026Z,19.69
2018-06-08T02:03:43.026Z,19.66
2018-06-08T02:04:43.006Z,19.69
2018-06-08T02:05:42.984Z,19.66
2018-06-08T02:06:42.977Z,19.62
2018-06-08T02:07:42.973Z,19.62
2018-06-08T02:08:42.981Z,19.66
2018-06-08T02:09:42.966Z,19.63
2018-06-08T02:10:42.968Z,19.64
2018-06-08T02:11:42.959Z,19.59
2018-06-08T02:12:42.961Z,19.59
2018-06-08T02:13:42.952Z,19.66
2018-06-08T02:14:42.949Z,19.54
2018-06-08T02:15:42.947Z,19.51
2018-06-08T02:16:42.943Z,19.56
2018-06-08T02:17:42.938Z,19.55
2018-06-08T02:18:42.935Z,19.64
2018-06-08T02:19:42.932Z,19.56
2018-06-08T02:20:42.923Z,19.66
2018-06-08T02:21:42.920Z,19.55
2018-06-08T02:22:42.931Z,19.56
2018-06-08T02:23:42.917Z,19.58
2018-06-08T02:24:42.913Z,19.66
2018-06-08T02:25:42.904Z,19.54
2018-06-08T02:26:42.904Z,19.64
2018-06-08T02:27:42.897Z,19.59
2018-06-08T02:28:42.893Z,19.58
2018-06-08T02:29:42.888Z,19.67
2018-06-08T02:30:42.889Z,19.64
2018-06-08T02:31:42.886Z,19.58
2018-06-08T02:32:42.882Z,19.64
2018-06-08T02:33:42.878Z,19.58
2018-06-08T02:34:42.872Z,19.64
2018-06-08T02:35:42.868Z,19.66
2018-06-08T02:36:42.874Z,19.62
2018-06-08T02:37:42.869Z,19.58
2018-06-08T02:38:42.866Z,19.66
2018-06-08T02:39:42.855Z,19.63
2018-06-08T02:40:42.854Z,19.55
2018-06-08T02:41:42.843Z,19.58
2018-06-08T02:42:42.840Z,19.58
2018-06-08T02:43:42.841Z,19.59
2018-06-08T02:44:42.836Z,19.59
2018-06-08T02:45:42.833Z,19.64
2018-06-08T02:46:42.834Z,19.55
2018-06-08T02:47:42.825Z,19.55
2018-06-08T02:48:42.820Z,19.55
2018-06-08T02:49:42.816Z,19.55
2018-06-08T02:50:42.816Z,19.59
2018-06-08T02:51:42.825Z,19.58
2018-06-08T02:52:42.806Z,19.56
2018-06-08T02:53:42.801Z,19.63
2018-06-08T02:54:42.797Z,19.59
2018-06-08T02:55:42.797Z,19.52
2018-06-08T02:56:42.794Z,19.58
2018-06-08T02:57:42.796Z,19.58
2018-06-08T02:58:42.786Z,19.55
2018-06-08T02:59:42.782Z,19.52
2018-06-08T03:00:42.781Z,19.58
2018-06-08T03:01:42.772Z,19.55
2018-06-08T03:02:42.768Z,19.56
2018-06-08T03:03:42.763Z,19.58
2018-06-08T03:04:42.762Z,19.56
2018-06-08T03:05:42.764Z,19.56
2018-06-08T03:06:42.756Z,19.58
2018-06-08T03:07:42.753Z,19.56
2018-06-08T03:08:42.746Z,19.58
2018-06-08T03:09:42.741Z,19.59
2018-06-08T03:10:42.738Z,19.67
2018-06-08T03:11:42.733Z,19.63
2018-06-08T03:12:42.733Z,19.55
2018-06-08T03:13:42.731Z,19.66
2018-06-08T03:14:42.725Z,19.67
2018-06-08T03:15:42.723Z,19.58
2018-06-08T03:16:42.715Z,19.56
2018-06-08T03:17:42.712Z,19.58
2018-06-08T03:18:42.706Z,19.67
2018-06-08T03:19:42.704Z,19.59
2018-06-08T03:20:42.711Z,19.55
2018-06-08T03:21:42.700Z,19.56
2018-06-08T03:22:42.696Z,19.56
2018-06-08T03:23:42.691Z,19.66
2018-06-08T03:24:42.687Z,19.62
2018-06-08T03:25:42.681Z,19.59
2018-06-08T03:26:42.684Z,19.52
2018-06-08T03:27:42.678Z,19.59
2018-06-08T03:28:42.669Z,19.63
2018-06-08T03:29:42.664Z,19.56
2018-06-08T03:30:42.668Z,19.66
2018-06-08T03:31:42.658Z,19.64
2018-06-08T03:32:42.671Z,19.62
2018-06-08T03:33:42.654Z,19.59
2018-06-08T03:34:42.657Z,19.66
2018-06-08T03:35:42.648Z,19.59
2018-06-08T03:36:42.641Z,19.56
2018-06-08T03:37:42.637Z,19.55
2018-06-08T03:38:42.644Z,19.58
2018-06-08T03:39:42.629Z,19.58
2018-06-08T03:40:42.627Z,19.55
2018-06-08T03:41:42.630Z,19.55
2018-06-08T03:42:42.625Z,19.55
2018-06-08T03:43:42.618Z,19.48
2018-06-08T03:44:42.613Z,19.56
2018-06-08T03:45:42.608Z,19.51
2018-06-08T03:46:42.604Z,19.55
2018-06-08T03:47:42.605Z,19.52
2018-06-08T03:48:42.602Z,19.54
2018-06-08T03:49:42.596Z,19.49
2018-06-08T03:50:42.593Z,19.48
2018-06-08T03:51:42.585Z,19.52
2018-06-08T03:52:42.582Z,19.52
2018-06-08T03:53:42.581Z,19.55
2018-06-08T03:54:42.577Z,19.48
2018-06-08T03:55:42.573Z,19.51
2018-06-08T03:56:42.571Z,19.59
2018-06-08T03:57:42.563Z,19.56
2018-06-08T03:58:42.559Z,19.56
2018-06-08T03:59:42.556Z,19.54
2018-06-08T04:00:42.558Z,19.58
2018-06-08T04:01:42.551Z,19.63
2018-06-08T04:02:42.548Z,19.56
2018-06-08T04:03:42.545Z,19.63
2018-06-08T04:04:42.540Z,19.66
2018-06-08T04:05:42.533Z,19.63
2018-06-08T04:06:42.530Z,19.62
2018-06-08T04:07:42.534Z,19.69
2018-06-08T04:08:42.527Z,19.66
2018-06-08T04:09:42.551Z,19.66
2018-06-08T04:10:42.520Z,19.67
2018-06-08T04:11:42.557Z,19.74
2018-06-08T04:12:42.509Z,19.76
2018-06-08T04:13:42.509Z,19.66
2018-06-08T04:14:42.503Z,19.67
2018-06-08T04:15:42.503Z,19.67
2018-06-08T04:16:42.500Z,19.62
2018-06-08T04:17:42.499Z,19.66
2018-06-08T04:18:42.491Z,19.67
2018-06-08T04:19:42.483Z,19.63
2018-06-08T04:20:42.484Z,19.63
2018-06-08T04:21:42.512Z,19.66
2018-06-08T04:22:42.475Z,19.67
2018-06-08T04:23:42.477Z,19.69
2018-06-08T04:24:42.470Z,19.67
2018-06-08T04:25:42.477Z,19.66
2018-06-08T04:26:42.460Z,19.70
2018-06-08T04:27:42.458Z,19.64
2018-06-08T04:28:42.451Z,19.64
2018-06-08T04:29:42.454Z,19.69
2018-06-08T04:30:42.448Z,19.64
2018-06-08T04:31:42.444Z,19.66
2018-06-08T04:32:42.481Z,19.67
2018-06-08T04:33:42.435Z,19.70
2018-06-08T04:34:42.431Z,19.67
2018-06-08T04:35:42.431Z,19.67
2018-06-08T04:36:42.430Z,19.69
2018-06-08T04:37:42.425Z,19.62
2018-06-08T04:38:42.420Z,19.67
2018-06-08T04:39:42.417Z,19.66
2018-06-08T04:40:42.408Z,19.66
2018-06-08T04:41:42.410Z,19.76
2018-06-08T04:42:42.402Z,19.74
2018-06-08T04:43:42.402Z,19.76
2018-06-08T04:44:42.401Z,19.70
2018-06-08T04:45:42.395Z,19.71
2018-06-08T04:46:42.394Z,19.81
2018-06-08T04:47:42.383Z,19.77
2018-06-08T04:48:42.384Z,19.67
2018-06-08T04:49:42.416Z,19.85
2018-06-08T04:50:42.379Z,19.84
2018-06-08T04:51:42.393Z,19.85
2018-06-08T04:52:42.374Z,19.88
2018-06-08T04:53:42.364Z,19.89
2018-06-08T04:54:42.381Z,19.91
2018-06-08T04:55:42.362Z,19.94
2018-06-08T04:56:42.356Z,19.96
2018-06-08T04:57:42.379Z,19.94
2018-06-08T04:58:42.356Z,20.03
2018-06-08T04:59:42.350Z,19.94
2018-06-08T05:00:42.342Z,19.96
2018-06-08T05:01:42.338Z,20.11
2018-06-08T05:02:42.333Z,20.07
2018-06-08T05:03:42.331Z,20.04
2018-06-08T05:04:42.331Z,20.06
2018-06-08T05:05:42.330Z,20.04
2018-06-08T05:06:42.324Z,20.10
2018-06-08T05:07:42.315Z,20.09
2018-06-08T05:08:42.316Z,20.10
2018-06-08T05:09:42.353Z,20.06
2018-06-08T05:10:42.311Z,20.13
2018-06-08T05:11:42.313Z,20.07
2018-06-08T05:12:42.308Z,20.14
2018-06-08T05:13:42.299Z,20.16
2018-06-08T05:14:42.297Z,20.16
2018-06-08T05:15:42.292Z,20.24
2018-06-08T05:16:42.289Z,20.21
2018-06-08T05:17:42.281Z,20.24
2018-06-08T05:18:42.283Z,20.26
2018-06-08T05:19:42.292Z,20.25
2018-06-08T05:20:42.276Z,20.26
2018-06-08T05:21:42.276Z,20.25
2018-06-08T05:22:42.276Z,20.29
2018-06-08T05:23:42.267Z,20.37
2018-06-08T05:24:42.308Z,20.36
2018-06-08T05:25:42.262Z,20.40
2018-06-08T05:26:42.264Z,20.36
2018-06-08T05:27:42.256Z,20.34
2018-06-08T05:28:42.254Z,20.36
2018-06-08T05:29:42.256Z,20.34
2018-06-08T05:30:42.244Z,20.41
2018-06-08T05:31:42.241Z,20.51
2018-06-08T05:32:42.247Z,20.44
2018-06-08T05:33:42.237Z,20.44
2018-06-08T05:34:42.233Z,20.41
2018-06-08T05:35:42.231Z,20.55
2018-06-08T05:36:42.223Z,20.62
2018-06-08T05:37:42.221Z,20.55
2018-06-08T05:38:42.217Z,20.55
2018-06-08T05:39:42.217Z,20.65
2018-06-08T05:40:42.216Z,20.70
2018-06-08T05:41:42.213Z,20.63
2018-06-08T05:42:42.207Z,20.69
2018-06-08T05:43:42.206Z,20.62
2018-06-08T05:44:42.204Z,20.65
2018-06-08T05:45:42.203Z,20.67
2018-06-08T05:46:42.199Z,20.74
2018-06-08T05:47:42.198Z,20.80
2018-06-08T05:48:42.195Z,20.80
2018-06-08T05:49:42.188Z,20.90
2018-06-08T05:50:42.183Z,20.96
2018-06-08T05:51:42.184Z,20.97
2018-06-08T05:52:42.183Z,21.05
2018-06-08T05:53:42.193Z,21.09
2018-06-08T05:54:42.186Z,21.07
2018-06-08T05:55:42.176Z,21.15
2018-06-08T05:56:42.167Z,21.20
2018-06-08T05:57:42.166Z,21.09
2018-06-08T05:58:42.167Z,21.14
2018-06-08T05:59:42.161Z,21.18
2018-06-08T06:00:42.162Z,21.20
2018-06-08T06:01:42.158Z,21.15
2018-06-08T06:02:42.157Z,21.20
2018-06-08T06:03:42.163Z,21.33
2018-06-08T06:04:42.173Z,21.29
2018-06-08T06:05:42.162Z,21.35
2018-06-08T06:06:42.151Z,21.33
2018-06-08T06:07:42.147Z,21.42
2018-06-08T06:08:42.146Z,21.48
2018-06-08T06:09:42.143Z,21.37
2018-06-08T06:10:42.133Z,21.48
2018-06-08T06:11:42.132Z,21.43
2018-06-08T06:12:42.133Z,21.50
2018-06-08T06:13:42.156Z,21.52
2018-06-08T06:14:42.132Z,21.60
2018-06-08T06:15:42.162Z,21.54
2018-06-08T06:16:42.155Z,21.51
2018-06-08T06:17:42.122Z,21.58
2018-06-08T06:18:42.123Z,21.61
2018-06-08T06:19:42.117Z,21.64
2018-06-08T06:20:42.121Z,21.76
2018-06-08T06:21:42.119Z,21.72
2018-06-08T06:22:42.113Z,21.73
2018-06-08T06:23:42.113Z,21.70
2018-06-08T06:24:42.107Z,21.67
2018-06-08T06:25:42.108Z,21.70
2018-06-08T06:26:42.112Z,21.73
2018-06-08T06:27:42.108Z,21.62
2018-06-08T06:28:42.104Z,21.75
2018-06-08T06:29:42.102Z,21.69
2018-06-08T06:30:42.100Z,21.77
2018-06-08T06:31:42.100Z,21.67
2018-06-08T06:32:42.095Z,21.70
2018-06-08T06:33:42.086Z,21.72
2018-06-08T06:34:42.088Z,21.61
2018-06-08T06:35:42.089Z,21.67
2018-06-08T06:36:42.082Z,21.72
2018-06-08T06:37:42.087Z,21.70
2018-06-08T06:38:42.083Z,21.72
2018-06-08T06:39:42.125Z,21.61
2018-06-08T06:40:42.095Z,21.69
2018-06-08T06:41:42.076Z,21.69
2018-06-08T06:42:42.086Z,21.73
2018-06-08T06:43:42.068Z,21.70
2018-06-08T06:44:42.067Z,21.82
2018-06-08T06:45:42.063Z,21.75
2018-06-08T06:46:42.132Z,21.75
2018-06-08T06:47:42.066Z,21.80
2018-06-08T06:48:42.064Z,21.69
2018-06-08T06:49:42.065Z,21.70
2018-06-08T06:50:42.069Z,21.73
2018-06-08T06:51:42.074Z,21.69
2018-06-08T06:52:42.111Z,21.72
2018-06-08T06:53:42.255Z,21.69
2018-06-08T06:54:42.050Z,21.70
2018-06-08T06:55:42.045Z,21.69
2018-06-08T06:56:42.041Z,21.80
2018-06-08T06:57:42.044Z,21.76
2018-06-08T06:58:42.044Z,21.82
2018-06-08T06:59:42.044Z,21.91
2018-06-08T07:00:42.047Z,21.96
2018-06-08T07:01:42.036Z,22.00
2018-06-08T07:02:42.036Z,22.02
2018-06-08T07:03:42.037Z,22.10
2018-06-08T07:04:42.037Z,21.96
2018-06-08T07:05:42.025Z,21.96
2018-06-08T07:06:42.031Z,22.06
2018-06-08T07:07:42.039Z,22.11
2018-06-08T07:08:42.021Z,22.17
2018-06-08T07:09:42.023Z,22.11
2018-06-08T07:10:42.022Z,22.11
2018-06-08T07:11:42.020Z,22.11
2018-06-08T07:12:42.061Z,22.11
2018-06-08T07:13:42.021Z,22.11
2018-06-08T07:14:42.016Z,22.08
2018-06-08T07:15:42.012Z,22.11
2018-06-08T07:16:42.009Z,22.14
2018-06-08T07:17:42.013Z,22.13
2018-06-08T07:18:42.068Z,22.11
2018-06-08T07:19:42.003Z,22.10
2018-06-08T07:20:42.006Z,22.15
2018-06-08T07:21:42.001Z,22.22
2018-06-08T07:22:41.997Z,22.18
2018-06-08T07:23:41.993Z,22.23
2018-06-08T07:24:42.043Z,22.25
2018-06-08T07:25:41.990Z,22.20
2018-06-08T07:26:41.987Z,22.17
2018-06-08T07:27:41.994Z,22.18
2018-06-08T07:28:41.989Z,22.29
2018-06-08T07:29:41.987Z,22.30
2018-06-08T07:30:41.983Z,22.29
2018-06-08T07:31:42.058Z,22.36
2018-06-08T07:32:41.977Z,22.41
2018-06-08T07:33:41.977Z,22.47
2018-06-08T07:34:41.978Z,22.45
2018-06-08T07:35:41.975Z,22.50
2018-06-08T07:36:41.976Z,22.53
2018-06-08T07:37:41.970Z,22.50
2018-06-08T07:38:41.968Z,22.51
2018-06-08T07:39:41.966Z,22.55
2018-06-08T07:40:41.981Z,22.57
2018-06-08T07:41:41.969Z,22.59
2018-06-08T07:42:41.969Z,22.60
2018-06-08T07:43:41.967Z,22.68
2018-06-08T07:44:41.960Z,22.65
2018-06-08T07:45:41.957Z,22.65
2018-06-08T07:46:41.982Z,22.72
2018-06-08T07:47:41.959Z,22.78
2018-06-08T07:48:41.962Z,22.75
2018-06-08T07:49:41.958Z,22.72
2018-06-08T07:50:41.954Z,22.78
2018-06-08T07:51:41.962Z,22.73
2018-06-08T07:52:41.947Z,22.76
2018-06-08T07:53:42.005Z,22.78
2018-06-08T07:54:41.952Z,22.76
2018-06-08T07:55:41.947Z,22.70
2018-06-08T07:56:41.950Z,22.83
2018-06-08T07:57:41.944Z,22.80
2018-06-08T07:58:41.945Z,22.72
2018-06-08T07:59:41.938Z,22.73
2018-06-08T08:00:41.943Z,22.72
2018-06-08T08:01:41.934Z,22.73
2018-06-08T08:02:41.937Z,22.78
2018-06-08T08:03:41.952Z,22.75
2018-06-08T08:04:41.947Z,22.78
2018-06-08T08:05:41.937Z,22.76
2018-06-08T08:06:41.934Z,22.78
2018-06-08T08:07:41.934Z,22.75
2018-06-08T08:08:41.933Z,22.76
2018-06-08T08:09:41.930Z,22.83
2018-06-08T08:10:41.923Z,22.69
2018-06-08T08:11:41.926Z,22.69
2018-06-08T08:12:41.922Z,22.73
2018-06-08T08:13:41.924Z,22.83
2018-06-08T08:14:41.922Z,22.69
2018-06-08T08:15:41.925Z,22.70
2018-06-08T08:16:41.918Z,22.75
2018-06-08T08:17:41.921Z,22.68
2018-06-08T08:18:41.932Z,22.69
2018-06-08T08:19:41.942Z,22.62
2018-06-08T08:20:41.927Z,22.66
2018-06-08T08:21:41.919Z,22.73
2018-06-08T08:22:41.923Z,22.68
2018-06-08T08:23:41.914Z,22.63
2018-06-08T08:24:41.923Z,22.76
2018-06-08T08:25:41.945Z,22.75
2018-06-08T08:26:41.901Z,22.75
2018-06-08T08:27:42.838Z,22.81
2018-06-08T08:28:41.926Z,22.72
2018-06-08T08:29:41.902Z,22.73
2018-06-08T08:30:41.907Z,22.78
2018-06-08T08:31:41.899Z,22.73
2018-06-08T08:32:42.107Z,22.68
2018-06-08T08:33:43.129Z,22.55
2018-06-08T08:34:41.897Z,22.55
2018-06-08T08:35:41.902Z,22.54
2018-06-08T08:36:41.907Z,22.53
2018-06-08T08:37:42.145Z,22.53
2018-06-08T08:38:41.930Z,22.54
2018-06-08T08:39:41.988Z,22.54
2018-06-08T08:40:41.940Z,22.54
2018-06-08T08:41:41.883Z,22.50
2018-06-08T08:42:41.884Z,22.48
2018-06-08T08:43:41.889Z,22.47
2018-06-08T08:44:41.883Z,22.47
2018-06-08T08:45:41.892Z,22.39
2018-06-08T08:46:41.882Z,22.29
2018-06-08T08:47:41.887Z,22.22
2018-06-08T08:48:41.881Z,22.20
2018-06-08T08:49:41.876Z,22.20
2018-06-08T08:50:41.877Z,22.17
2018-06-08T08:51:41.887Z,22.22
2018-06-08T08:52:41.874Z,22.13
2018-06-08T08:53:41.865Z,22.30
2018-06-08T08:54:41.865Z,22.20
2018-06-08T08:55:41.862Z,22.18
2018-06-08T08:56:41.866Z,22.25
2018-06-08T08:57:41.864Z,22.26
2018-06-08T08:58:41.867Z,22.23
2018-06-08T08:59:41.897Z,22.25
2018-06-08T09:00:41.856Z,22.23
2018-06-08T09:01:41.853Z,22.20
2018-06-08T09:02:41.934Z,22.26
2018-06-08T09:03:41.881Z,22.13
2018-06-08T09:04:41.863Z,22.11
2018-06-08T09:05:41.845Z,22.14
2018-06-08T09:06:41.842Z,22.00
2018-06-08T09:07:41.842Z,22.08
2018-06-08T09:08:42.359Z,22.08
2018-06-08T09:09:41.837Z,22.10
2018-06-08T09:10:42.363Z,22.08
2018-06-08T09:11:41.837Z,21.96
2018-06-08T09:12:41.851Z,22.10
2018-06-08T09:13:41.833Z,22.10
2018-06-08T09:14:41.826Z,22.04
2018-06-08T09:15:41.830Z,22.17
2018-06-08T09:16:41.822Z,22.15
2018-06-08T09:17:41.841Z,21.99
2018-06-08T09:18:41.822Z,22.07
2018-06-08T09:19:41.820Z,22.10
2018-06-08T09:20:41.819Z,22.11
2018-06-08T09:21:41.816Z,22.14
2018-06-08T09:22:41.824Z,22.11
2018-06-08T09:23:41.823Z,22.13
2018-06-08T09:24:41.832Z,22.14
2018-06-08T09:25:41.803Z,22.10
2018-06-08T09:26:41.839Z,21.95
2018-06-08T09:27:41.840Z,22.08
2018-06-08T09:28:41.811Z,22.08
2018-06-08T09:29:41.799Z,22.08
2018-06-08T09:30:41.826Z,22.06
2018-06-08T09:31:41.798Z,21.98
2018-06-08T09:32:41.793Z,21.99
2018-06-08T09:33:41.816Z,22.13
2018-06-08T09:34:41.790Z,22.11
2018-06-08T09:35:41.799Z,22.08
2018-06-08T09:36:41.779Z,22.15
2018-06-08T09:37:41.776Z,22.17
2018-06-08T09:38:41.777Z,22.14
2018-06-08T09:39:41.792Z,22.22
2018-06-08T09:40:42.383Z,22.10
2018-06-08T09:41:41.797Z,22.06
2018-06-08T09:42:41.766Z,22.10
2018-06-08T09:43:41.768Z,21.96
2018-06-08T09:44:41.786Z,21.98
2018-06-08T09:45:41.776Z,22.06
2018-06-08T09:46:41.767Z,22.06
2018-06-08T09:47:41.762Z,21.96
2018-06-08T09:48:41.753Z,22.06
2018-06-08T09:49:41.760Z,22.07
2018-06-08T09:50:41.752Z,21.98
2018-06-08T09:51:41.746Z,22.14
2018-06-08T09:52:41.751Z,22.13
2018-06-08T09:53:41.747Z,22.08
2018-06-08T09:54:41.786Z,22.11
2018-06-08T09:55:41.739Z,22.13
2018-06-08T09:56:41.736Z,22.11
2018-06-08T09:57:41.737Z,22.11
2018-06-08T09:58:41.734Z,22.08
2018-06-08T09:59:41.732Z,22.10
2018-06-08T10:00:41.738Z,22.11
2018-06-08T10:01:41.731Z,22.14
2018-06-08T10:02:41.724Z,22.14
2018-06-08T10:03:41.720Z,22.17
2018-06-08T10:04:41.723Z,22.23
2018-06-08T10:05:41.720Z,22.15
2018-06-08T10:06:41.715Z,22.25
2018-06-08T10:07:41.718Z,22.08
2018-06-08T10:08:41.709Z,22.10
2018-06-08T10:09:41.710Z,22.08
2018-06-08T10:10:41.707Z,22.13
2018-06-08T10:11:41.734Z,22.10
2018-06-08T10:12:41.702Z,22.13
2018-06-08T10:13:41.704Z,21.99
2018-06-08T10:14:41.702Z,22.02
2018-06-08T10:15:41.700Z,21.99
2018-06-08T10:16:41.765Z,21.98
2018-06-08T10:17:41.689Z,22.00
2018-06-08T10:18:41.688Z,21.95
2018-06-08T10:19:41.685Z,21.93
2018-06-08T10:20:41.686Z,21.92
2018-06-08T10:21:41.684Z,21.89
2018-06-08T10:22:41.678Z,21.88
2018-06-08T10:23:41.677Z,21.91
2018-06-08T10:24:41.689Z,21.89
2018-06-08T10:25:41.670Z,21.89
2018-06-08T10:26:41.751Z,21.93
2018-06-08T10:27:41.690Z,21.83
2018-06-08T10:28:41.676Z,21.89
2018-06-08T10:29:41.674Z,21.95
2018-06-08T10:30:41.658Z,21.93
2018-06-08T10:31:41.664Z,21.93
2018-06-08T10:32:41.654Z,21.93
2018-06-08T10:33:41.710Z,22.00
2018-06-08T10:34:41.660Z,21.88
2018-06-08T10:35:41.650Z,21.89
2018-06-08T10:36:41.648Z,21.88
2018-06-08T10:37:41.646Z,21.88
2018-06-08T10:38:41.642Z,21.91
2018-06-08T10:39:41.641Z,21.88
2018-06-08T10:40:41.656Z,21.85
2018-06-08T10:41:41.663Z,21.82
2018-06-08T10:42:41.643Z,21.82
2018-06-08T10:43:41.637Z,21.82
2018-06-08T10:44:41.625Z,21.82
2018-06-08T10:45:41.624Z,21.77
2018-06-08T10:46:41.626Z,21.77
2018-06-08T10:47:41.621Z,21.77
2018-06-08T10:48:41.621Z,21.67
2018-06-08T10:49:41.610Z,21.66
2018-06-08T10:50:41.610Z,21.72
2018-06-08T10:51:41.609Z,21.69
2018-06-08T10:52:41.606Z,21.69
2018-06-08T10:53:41.623Z,21.60
2018-06-08T10:54:42.471Z,21.55
2018-06-08T10:55:42.417Z,21.54
2018-06-08T10:56:43.833Z,21.42
2018-06-08T10:57:41.722Z,21.40
2018-06-08T11:04:53.067Z,21.21
2018-06-08T11:05:52.256Z,21.18
2018-06-08T11:06:52.221Z,21.09
2018-06-08T11:07:52.269Z,21.07
2018-06-08T11:08:52.335Z,20.93
2018-06-08T11:09:52.192Z,20.96
2018-06-08T11:10:52.190Z,20.95
2018-06-08T11:11:52.194Z,20.96
2018-06-08T11:12:52.186Z,20.88
2018-06-08T11:13:52.184Z,20.93
2018-06-08T11:14:52.181Z,20.87
2018-06-08T11:15:52.179Z,20.84
2018-06-08T11:16:52.196Z,20.88
2018-06-08T11:17:52.182Z,20.80
2018-06-08T11:18:52.189Z,20.77
2018-06-08T11:19:52.175Z,20.72
2018-06-08T11:20:52.202Z,20.70
2018-06-08T11:21:52.166Z,20.69
2018-06-08T11:22:52.163Z,20.65
2018-06-08T11:23:52.167Z,20.63
2018-06-08T11:24:52.148Z,20.62
2018-06-08T11:25:52.152Z,20.58
2018-06-08T11:26:52.150Z,20.66
2018-06-08T11:27:52.162Z,20.50
2018-06-08T11:28:52.133Z,20.52
2018-06-08T11:29:52.127Z,20.52
2018-06-08T11:30:52.120Z,20.50
2018-06-08T11:31:52.118Z,20.47
2018-06-08T11:32:52.124Z,20.39
2018-06-08T11:33:52.111Z,20.29
2018-06-08T11:34:52.113Z,20.29
2018-06-08T11:35:52.106Z,20.31
2018-06-08T11:36:52.099Z,20.28
2018-06-08T11:37:52.110Z,20.19
2018-06-08T11:38:52.095Z,20.13
2018-06-08T11:39:52.090Z,20.10
2018-06-08T11:40:52.083Z,20.04
2018-06-08T11:41:53.002Z,20.11
2018-06-08T11:42:52.077Z,20.02
2018-06-08T11:43:52.075Z,20.03
2018-06-08T11:44:52.067Z,20.02
2018-06-08T11:45:52.115Z,19.92
2018-06-08T11:46:52.074Z,20.00
2018-06-08T11:47:53.003Z,19.91
2018-06-08T11:48:52.052Z,19.95
2018-06-08T11:49:52.076Z,19.84
2018-06-08T11:50:52.041Z,19.88
2018-06-08T11:51:52.044Z,19.85
2018-06-08T11:52:52.034Z,19.85
2018-06-08T11:53:52.049Z,19.79
2018-06-08T11:54:52.033Z,19.71
2018-06-08T11:55:52.021Z,19.86
2018-06-08T11:56:52.019Z,19.76
2018-06-08T11:57:52.015Z,19.76
2018-06-08T11:58:52.008Z,19.85
2018-06-08T11:59:52.005Z,19.74
2018-06-08T12:00:52.006Z,19.70
2018-06-08T12:01:52.052Z,19.73
2018-06-08T12:02:52.519Z,19.77
2018-06-08T12:03:52.509Z,19.76
2018-06-08T12:04:51.980Z,19.63
2018-06-08T12:05:51.979Z,19.64
2018-06-08T12:06:51.983Z,19.56
2018-06-08T12:07:51.978Z,19.69
2018-06-08T12:08:51.980Z,19.59
2018-06-08T12:09:51.993Z,19.62
2018-06-08T12:10:52.024Z,19.64
2018-06-08T12:11:51.951Z,19.64
2018-06-08T12:12:52.013Z,19.59
2018-06-08T12:13:51.938Z,19.59
2018-06-08T12:14:51.943Z,19.55
2018-06-08T12:15:51.935Z,19.48
2018-06-08T12:16:51.926Z,19.51
2018-06-08T12:17:51.946Z,19.48
2018-06-08T12:18:51.918Z,19.44
2018-06-08T12:19:51.910Z,19.54
2018-06-08T12:20:51.909Z,19.44
2018-06-08T12:21:51.899Z,19.48
2018-06-08T12:22:51.900Z,19.52
2018-06-08T12:23:51.899Z,19.49
2018-06-08T12:24:51.888Z,19.51
2018-06-08T12:25:51.881Z,19.44
2018-06-08T12:26:51.878Z,19.41
2018-06-08T12:27:51.879Z,19.44
2018-06-08T12:28:51.869Z,19.40
2018-06-08T12:29:51.881Z,19.40
2018-06-08T12:30:51.869Z,19.54
2018-06-08T12:31:51.870Z,19.51
2018-06-08T12:32:51.859Z,19.39
2018-06-08T12:33:51.862Z,19.40
2018-06-08T12:34:51.839Z,19.51
2018-06-08T12:35:51.844Z,19.47
2018-06-08T12:36:52.532Z,19.48
2018-06-08T12:37:51.830Z,19.44
2018-06-08T12:38:51.824Z,19.54
2018-06-08T12:39:51.822Z,19.54
2018-06-08T12:40:51.817Z,19.49
2018-06-08T12:41:51.812Z,19.44
2018-06-08T12:42:51.809Z,19.49
2018-06-08T12:43:51.803Z,19.41
2018-06-08T12:44:51.800Z,19.41
2018-06-08T12:45:51.815Z,19.45
2018-06-08T12:46:51.798Z,19.52
2018-06-08T12:47:51.793Z,19.49
2018-06-08T12:48:51.810Z,19.54
2018-06-08T12:49:51.783Z,19.54
2018-06-08T12:50:51.777Z,19.55
2018-06-08T12:51:51.773Z,19.59
2018-06-08T12:52:51.780Z,19.55
2018-06-08T12:53:51.766Z,19.56
2018-06-08T12:54:51.776Z,19.64
2018-06-08T12:55:51.770Z,19.73
2018-06-08T12:56:51.758Z,19.73
2018-06-08T12:57:51.752Z,19.74
2018-06-08T12:58:51.750Z,19.74